createdAt,value
2024-01-06T00:02:47.094Z,3.73
2024-01-06T00:07:48.777Z,3.68
2024-01-06T00:12:50.519Z,3.69
2024-01-06T00:17:52.262Z,3.59
2024-01-06T00:22:53.942Z,3.66
2024-01-06T00:27:55.618Z,3.69
2024-01-06T00:32:57.397Z,3.69
2024-01-06T00:38:01.756Z,3.76
2024-01-06T00:43:03.560Z,3.70
2024-01-06T00:48:06.152Z,3.63
2024-01-06T00:53:07.957Z,3.60
2024-01-06T00:58:09.923Z,3.55
2024-01-06T01:03:11.704Z,3.68
2024-01-06T01:08:13.341Z,3.57
2024-01-06T01:13:14.998Z,3.66
2024-01-06T01:18:16.866Z,3.59
2024-01-06T01:23:18.527Z,3.66
2024-01-06T01:28:20.267Z,3.67
2024-01-06T01:33:22.295Z,3.59
2024-01-06T01:38:23.969Z,3.51
2024-01-06T01:43:25.703Z,3.52
2024-01-06T01:48:27.675Z,3.50
2024-01-06T01:53:29.577Z,3.64
2024-01-06T01:58:31.450Z,3.47
2024-01-06T02:03:33.901Z,3.56
2024-01-06T02:08:35.623Z,3.48
2024-01-06T02:13:38.714Z,3.45
2024-01-06T02:18:40.461Z,3.55
2024-01-06T02:23:42.105Z,3.45
2024-01-06T02:28:48.931Z,3.52
2024-01-06T02:33:50.839Z,3.62
2024-01-06T02:38:52.505Z,3.58
2024-01-06T02:43:55.930Z,3.45
2024-01-06T02:48:57.692Z,3.52
2024-01-06T02:53:59.355Z,3.52
2024-01-06T02:59:00.949Z,3.46
2024-01-06T03:04:02.774Z,3.59
2024-01-06T03:09:04.527Z,3.80
2024-01-06T03:14:06.140Z,3.41
2024-01-06T03:19:07.954Z,3.41
2024-01-06T03:24:10.479Z,3.49
2024-01-06T03:29:12.948Z,3.58
2024-01-06T03:34:14.813Z,3.69
2024-01-06T03:39:16.620Z,3.50
2024-01-06T03:44:18.253Z,3.61
2024-01-06T03:49:21.963Z,3.57
2024-01-06T03:54:23.978Z,3.68
2024-01-06T03:59:25.618Z,3.55
2024-01-06T04:04:27.222Z,3.54
2024-01-06T04:09:28.891Z,3.63
2024-01-06T04:14:30.500Z,3.51
2024-01-06T04:19:32.513Z,3.44
2024-01-06T04:24:38.473Z,3.63
2024-01-06T04:29:40.618Z,3.45
2024-01-06T04:34:43.074Z,3.41
2024-01-06T04:39:44.885Z,3.41
2024-01-06T04:44:46.584Z,3.32
2024-01-06T04:49:48.375Z,3.39
2024-01-06T04:54:50.169Z,3.38
2024-01-06T04:59:51.920Z,3.33
2024-01-06T05:04:53.586Z,3.40
2024-01-06T05:09:55.273Z,3.33
2024-01-06T05:14:56.935Z,3.10
2024-01-06T05:19:59.668Z,3.25
2024-01-06T05:25:01.308Z,3.17
2024-01-06T05:30:03.474Z,3.31
2024-01-06T05:35:05.973Z,3.33
2024-01-06T05:40:08.465Z,3.28
2024-01-06T05:45:14.300Z,3.27
2024-01-06T05:50:17.216Z,3.32
2024-01-06T05:55:18.865Z,3.23
2024-01-06T06:00:20.753Z,3.14
2024-01-06T06:05:22.451Z,3.17
2024-01-06T06:10:24.152Z,3.10
2024-01-06T06:15:25.839Z,3.11
2024-01-06T06:20:27.480Z,3.11
2024-01-06T06:25:29.075Z,3.18
2024-01-06T06:30:30.753Z,3.02
2024-01-06T06:35:32.452Z,3.02
2024-01-06T06:40:34.074Z,3.11
2024-01-06T06:45:36.283Z,3.06
2024-01-06T06:50:38.014Z,3.10
2024-01-06T06:55:39.781Z,3.12
2024-01-06T07:00:41.679Z,3.10
2024-01-06T07:05:43.464Z,3.10
2024-01-06T07:10:45.984Z,3.15
2024-01-06T07:15:47.624Z,3.08
2024-01-06T07:20:49.452Z,3.11
2024-01-06T07:25:51.046Z,3.09
2024-01-06T07:30:52.732Z,2.99
2024-01-06T07:35:54.406Z,3.15
2024-01-06T07:40:56.003Z,3.14
2024-01-06T07:45:58.121Z,3.17
2024-01-06T07:50:59.741Z,3.13
2024-01-06T07:56:01.387Z,3.18
2024-01-06T08:01:03.184Z,3.08
2024-01-06T08:06:05.243Z,3.16
2024-01-06T08:11:06.873Z,3.19
2024-01-06T08:16:08.512Z,3.25
2024-01-06T08:21:10.165Z,3.23
2024-01-06T08:26:13.553Z,3.25
2024-01-06T08:31:15.717Z,3.17
2024-01-06T08:36:18.299Z,3.27
2024-01-06T08:41:19.933Z,3.24
2024-01-06T08:46:21.595Z,3.26
2024-01-06T08:51:23.276Z,3.18
2024-01-06T08:56:24.887Z,3.29
2024-01-06T09:01:26.699Z,3.33
2024-01-06T09:06:28.437Z,3.23
2024-01-06T09:11:30.050Z,3.19
2024-01-06T09:16:31.691Z,3.23
2024-01-06T09:21:33.369Z,3.14
2024-01-06T09:26:38.135Z,3.17
2024-01-06T09:31:40.157Z,3.30
2024-01-06T09:36:41.956Z,3.25
2024-01-06T09:41:43.867Z,3.25
2024-01-06T09:46:45.945Z,3.23
2024-01-06T09:51:52.427Z,3.03
2024-01-06T09:56:54.175Z,3.02
2024-01-06T10:01:57.580Z,3.13
2024-01-06T10:06:59.525Z,3.05
2024-01-06T10:12:01.381Z,3.08
2024-01-06T10:17:03.840Z,3.15
2024-01-06T10:22:05.640Z,3.02
2024-01-06T10:27:10.008Z,3.19
2024-01-06T10:32:11.715Z,3.15
2024-01-06T10:37:13.635Z,3.32
2024-01-06T10:42:16.469Z,3.27
2024-01-06T10:47:19.604Z,3.40
2024-01-06T10:52:22.261Z,3.15
2024-01-06T10:57:24.756Z,2.94
2024-01-06T11:02:27.615Z,2.95
2024-01-06T11:07:29.914Z,2.95
2024-01-06T11:12:31.692Z,2.91
2024-01-06T11:17:57.035Z,2.93
2024-01-06T11:23:20.545Z,3.06
2024-01-06T11:28:22.269Z,3.16
2024-01-06T11:33:23.978Z,3.24
2024-01-06T11:38:25.623Z,3.03
2024-01-06T11:43:28.257Z,3.10
2024-01-06T11:48:33.052Z,2.96
2024-01-06T11:53:34.920Z,2.99
2024-01-06T11:58:36.648Z,3.07
2024-01-06T12:03:38.389Z,2.82
2024-01-06T12:08:40.624Z,2.78
2024-01-06T12:13:42.242Z,2.64
2024-01-06T12:18:43.941Z,2.74
2024-01-06T12:23:45.624Z,2.70
2024-01-06T12:28:47.829Z,2.69
2024-01-06T12:33:49.690Z,2.50
2024-01-06T12:38:52.297Z,2.53
2024-01-06T12:43:54.055Z,2.71
2024-01-06T12:48:56.059Z,2.69
2024-01-06T12:53:57.879Z,2.52
2024-01-06T12:58:59.522Z,2.56
2024-01-06T13:04:02.641Z,2.65
2024-01-06T13:09:07.530Z,2.58
2024-01-06T13:14:10.028Z,2.63
2024-01-06T13:19:11.770Z,2.53
2024-01-06T13:24:13.568Z,2.52
2024-01-06T13:29:15.192Z,2.65
2024-01-06T13:34:17.223Z,2.59
2024-01-06T13:39:22.135Z,2.66
2024-01-06T13:44:24.152Z,2.44
2024-01-06T13:49:26.021Z,2.28
2024-01-06T13:54:27.939Z,2.26
2024-01-06T13:59:29.728Z,2.57
2024-01-06T14:04:31.705Z,2.41
2024-01-06T14:09:33.559Z,2.25
2024-01-06T14:14:35.258Z,2.30
2024-01-06T14:19:38.097Z,2.28
2024-01-06T14:24:39.733Z,2.16
2024-01-06T14:29:42.542Z,2.16
2024-01-06T14:34:44.425Z,2.18
2024-01-06T14:39:46.821Z,2.10
2024-01-06T14:44:48.469Z,2.19
2024-01-06T14:49:50.190Z,2.03
2024-01-06T14:54:51.954Z,2.09
2024-01-06T14:59:53.665Z,2.06
2024-01-06T15:04:56.046Z,2.10
2024-01-06T15:10:04.301Z,2.05
2024-01-06T15:15:08.378Z,2.22
2024-01-06T15:20:11.401Z,2.12
2024-01-06T15:25:13.354Z,1.91
2024-01-06T15:30:17.328Z,1.67
2024-01-06T15:35:20.591Z,1.83
2024-01-06T15:40:23.250Z,1.99
2024-01-06T15:45:24.956Z,1.90
2024-01-06T15:50:26.705Z,2.00
2024-01-06T15:55:28.289Z,1.99
2024-01-06T16:00:29.960Z,1.95
2024-01-06T16:05:31.682Z,1.88
2024-01-06T16:10:33.357Z,1.71
2024-01-06T16:15:35.079Z,1.77
2024-01-06T16:20:36.713Z,1.70
2024-01-06T16:25:39.458Z,1.72
2024-01-06T16:30:42.293Z,1.65
2024-01-06T16:35:47.074Z,1.51
2024-01-06T16:40:48.767Z,1.54
2024-01-06T16:45:50.541Z,1.83
2024-01-06T16:50:52.227Z,1.76
2024-01-06T16:55:53.950Z,1.61
2024-01-06T17:00:55.927Z,1.56
2024-01-06T17:05:57.691Z,1.61
2024-01-06T17:10:59.341Z,1.55
2024-01-06T17:16:01.001Z,1.37
2024-01-06T17:21:03.516Z,1.47
2024-01-06T17:26:05.116Z,1.60
2024-01-06T17:31:06.803Z,1.45
2024-01-06T17:36:08.614Z,1.49
2024-01-06T17:41:10.241Z,1.32
2024-01-06T17:46:11.895Z,1.48
2024-01-06T17:51:13.627Z,1.18
2024-01-06T17:56:15.413Z,1.26
2024-01-06T18:01:17.231Z,1.42
2024-01-06T18:06:19.046Z,1.39
2024-01-06T18:11:20.841Z,1.30
2024-01-06T18:16:22.689Z,1.35
2024-01-06T18:21:24.395Z,1.35
2024-01-06T18:26:27.026Z,1.30
2024-01-06T18:31:28.664Z,1.18
2024-01-06T18:36:30.387Z,1.38
2024-01-06T18:41:32.034Z,1.33
2024-01-06T18:46:33.668Z,1.25
2024-01-06T18:51:38.613Z,1.07
2024-01-06T18:56:40.403Z,1.13
2024-01-06T19:01:44.519Z,1.09
2024-01-06T19:06:47.811Z,1.16
2024-01-06T19:11:49.472Z,1.10
2024-01-06T19:16:51.625Z,1.20
2024-01-06T19:21:53.282Z,1.29
2024-01-06T19:26:55.859Z,1.11
2024-01-06T19:31:58.371Z,0.98
2024-01-06T19:37:00.225Z,0.94
2024-01-06T19:42:02.013Z,0.99
2024-01-06T19:47:03.834Z,1.03
2024-01-06T19:52:05.855Z,0.98
2024-01-06T19:57:09.073Z,1.09
2024-01-06T20:02:10.836Z,0.94
2024-01-06T20:07:12.661Z,1.00
2024-01-06T20:12:14.498Z,0.80
2024-01-06T20:17:16.567Z,0.63
2024-01-06T20:22:18.322Z,0.69
2024-01-06T20:27:20.402Z,0.63
2024-01-06T20:32:22.286Z,0.64
2024-01-06T20:37:26.253Z,0.64
2024-01-06T20:42:30.620Z,0.48
2024-01-06T20:47:32.413Z,0.47
2024-01-06T20:52:34.206Z,0.71
2024-01-06T20:57:35.918Z,0.79
2024-01-06T21:02:37.665Z,0.73
2024-01-06T21:07:42.543Z,0.63
2024-01-06T21:12:44.447Z,0.60
2024-01-06T21:17:46.215Z,0.52
2024-01-06T21:22:47.995Z,0.60
2024-01-06T21:27:49.837Z,0.56
2024-01-06T21:32:52.950Z,0.55
2024-01-06T21:37:54.662Z,0.60
2024-01-06T21:42:56.377Z,0.72
2024-01-06T21:47:58.238Z,0.70
2024-01-06T21:53:00.752Z,0.58
2024-01-06T21:58:02.417Z,0.66
2024-01-06T22:03:05.569Z,0.42
2024-01-06T22:08:08.271Z,0.22
2024-01-06T22:13:10.025Z,0.12
2024-01-06T22:18:11.832Z,0.09
2024-01-06T22:23:13.484Z,0.11
2024-01-06T22:28:15.399Z,0.11
2024-01-06T22:33:18.245Z,0.32
2024-01-06T22:38:19.982Z,0.22
2024-01-06T22:43:21.601Z,-0.05
2024-01-06T22:48:23.298Z,0.12
2024-01-06T22:53:24.960Z,0.11
2024-01-06T22:58:26.757Z,0.23
2024-01-06T23:03:28.606Z,0.12
2024-01-06T23:08:30.321Z,0.10
2024-01-06T23:13:32.285Z,0.16
2024-01-06T23:18:34.137Z,0.03
2024-01-06T23:23:37.674Z,-0.12
2024-01-06T23:28:39.277Z,-0.13
2024-01-06T23:33:41.606Z,-0.16
2024-01-06T23:38:43.422Z,0.02
2024-01-06T23:43:45.095Z,-0.24
2024-01-06T23:48:46.871Z,-0.24
2024-01-06T23:53:50.762Z,-0.25
2024-01-06T23:58:53.855Z,-0.15
